Time,TemperatureF,DewpointF,PressureIn,WindDirection,WindDirectionDegrees,WindSpeedMPH,WindSpeedGustMPH,Humidity,HourlyPrecipIn,Conditions,Clouds,dailyrainin,SolarRadiationWatts/m^2,SoftwareType,DateUTC
2013-08-09 01:00:00,71.6,70.1,29.98,SSW,196,0.0,25.0,95,0.00,,,0.00,0,Wunderground v.1.15,2013-08-09 05:00:00,
2013-08-09 02:00:00,71.3,70.1,29.99,SSW,196,0.0,25.0,96,0.00,,,0.00,0,Wunderground v.1.15,2013-08-09 06:00:00,
2013-08-09 03:00:00,71.3,70.1,29.99,SSW,196,0.0,25.0,96,0.00,,,0.01,0,Wunderground v.1.15,2013-08-09 07:00:00,
2013-08-09 04:00:00,71.1,69.9,30.00,SSW,196,0.0,25.0,96,0.00,,,0.01,0,Wunderground v.1.15,2013-08-09 08:00:00,
2013-08-09 05:00:00,71.1,69.9,30.00,SSW,196,0.0,25.0,96,0.00,,,0.01,0,Wunderground v.1.15,2013-08-09 09:00:00,
2013-08-09 06:00:00,70.9,69.7,30.00,SSW,196,0.0,25.0,96,0.00,,,0.01,0,Wunderground v.1.15,2013-08-09 10:00:00,
2013-08-09 07:00:00,70.9,69.7,30.01,SSW,196,0.0,25.0,96,0.00,,,0.01,0,Wunderground v.1.15,2013-08-09 11:00:00,
2013-08-09 08:00:00,71.6,70.7,30.03,SSW,196,0.0,25.0,97,0.00,,,0.01,30,Wunderground v.1.15,2013-08-09 12:00:00,
2013-08-09 09:00:00,73.3,72.4,30.04,SSW,196,0.0,25.0,97,0.00,,,0.01,63,Wunderground v.1.15,2013-08-09 13:00:00,
2013-08-09 10:00:00,75.3,74.1,30.04,SSW,196,2.0,25.0,96,0.00,,,0.01,90,Wunderground v.1.15,2013-08-09 14:00:00,
2013-08-09 11:00:00,79.9,73.9,30.04,WSW,242,4.0,25.0,82,0.00,,,0.01,223,Wunderground v.1.15,2013-08-09 15:00:00,
2013-08-09 12:00:00,83.6,74.4,30.04,South,177,4.0,25.0,74,0.00,,,0.02,786,Wunderground v.1.15,2013-08-09 16:00:00,
2013-08-09 13:00:00,87.0,74.7,30.02,South,186,5.0,25.0,67,0.00,,,0.02,874,Wunderground v.1.15,2013-08-09 17:00:00,
2013-08-09 14:00:00,87.4,73.7,30.01,WSW,241,4.0,25.0,64,0.00,,,0.02,148,Wunderground v.1.15,2013-08-09 18:00:00,
2013-08-09 15:00:00,82.8,76.7,29.99,NNW,346,1.0,1.0,82,0.00,,,0.02,225,Wunderground v.1.15,2013-08-09 19:00:00,
2013-08-09 16:00:00,85.1,74.6,29.98,South,173,5.0,7.0,71,0.00,,,0.02,763,Wunderground v.1.15,2013-08-09 20:00:00,
2013-08-09 17:00:00,88.0,72.4,29.97,SW,234,5.0,8.0,60,0.00,,,0.02,113,Wunderground v.1.15,2013-08-09 21:00:00,
2013-08-09 18:00:00,88.8,71.6,29.96,SW,216,6.0,8.0,57,0.00,,,0.02,339,Wunderground v.1.15,2013-08-09 22:00:00,
2013-08-09 19:35:00,86.5,72.9,29.97,SSW,202,4.0,4.0,64,0.00,,,0.02,83,Wunderground v.1.15,2013-08-09 23:35:00,
2013-08-09 22:00:00,77.0,71.4,30.03,NNW,346,0.0,0.0,83,0.00,,,0.02,0,Wunderground v.1.15,2013-08-10 02:00:00,
2013-08-09 23:00:00,76.7,72.2,30.04,NNW,346,0.0,0.0,86,0.00,,,0.02,0,Wunderground v.1.15,2013-08-10 03:00:00,